Time,TemperatureF,DewpointF,PressureIn,WindDirection,WindDirectionDegrees,WindSpeedMPH,WindSpeedGustMPH,Humidity,HourlyPrecipIn,Conditions,Clouds,dailyrainin,SoftwareType,DateUTC
2013-02-04 00:02:00,40.0,39.2,30.05,West,276,0.0,0.0,97,0.00,,---,0.00,VWS V14.01,2013-02-04 06:02:00,
2013-02-04 00:07:00,39.9,39.1,30.05,West,276,0.0,0.0,97,0.00,,---,0.00,VWS V14.01,2013-02-04 06:07:00,
2013-02-04 00:12:00,39.8,39.0,30.05,West,276,0.0,0.0,97,0.00,,---,0.00,VWS V14.01,2013-02-04 06:12:00,
2013-02-04 00:17:00,39.7,38.9,30.05,West,276,0.0,0.0,97,0.00,,---,0.00,VWS V14.01,2013-02-04 06:17:00,
2013-02-04 00:22:00,39.6,38.8,30.04,West,276,0.0,0.0,97,0.00,,---,0.00,VWS V14.01,2013-02-04 06:22:00,
2013-02-04 00:27:00,39.5,38.7,30.04,West,276,0.0,0.0,97,0.00,,---,0.00,VWS V14.01,2013-02-04 06:27:00,
2013-02-04 00:32:00,39.3,38.5,30.04,West,276,0.0,0.0,97,0.00,,---,0.00,VWS V14.01,2013-02-04 06:32:00,
2013-02-04 00:37:00,39.2,38.4,30.04,West,276,0.0,0.0,97,0.00,,---,0.00,VWS V14.01,2013-02-04 06:37:00,
2013-02-04 00:42:00,39.0,38.2,30.04,West,276,0.0,0.0,97,0.00,,---,0.00,VWS V14.01,2013-02-04 06:42:00,
2013-02-04 00:47:00,38.9,38.1,30.04,West,276,0.0,0.0,97,0.00,,---,0.00,VWS V14.01,2013-02-04 06:47:00,
2013-02-04 00:52:00,38.9,38.1,30.04,West,276,0.0,0.0,97,0.00,,---,0.00,VWS V14.01,2013-02-04 06:52:00,
2013-02-04 00:56:00,38.7,37.9,30.04,West,276,0.0,0.0,97,0.00,,---,0.00,VWS V14.01,2013-02-04 06:56:00,
2013-02-04 01:01:00,38.5,37.7,30.04,West,276,0.0,0.0,97,0.00,,---,0.00,VWS V14.01,2013-02-04 07:01:00,
2013-02-04 01:06:00,38.3,37.5,30.04,West,276,0.0,0.0,97,0.00,,---,0.00,VWS V14.01,2013-02-04 07:06:00,
2013-02-04 01:11:00,38.2,37.4,30.03,West,276,0.0,0.0,97,0.00,,---,0.00,VWS V14.01,2013-02-04 07:11:00,
2013-02-04 01:16:00,38.1,37.3,30.03,West,276,0.0,0.0,97,0.00,,---,0.00,VWS V14.01,2013-02-04 07:16:00,
2013-02-04 01:21:00,38.1,37.3,30.03,West,276,0.0,0.0,97,0.00,,---,0.00,VWS V14.01,2013-02-04 07:21:00,
2013-02-04 01:26:00,38.1,37.3,30.03,West,276,0.0,0.0,97,0.00,,---,0.00,VWS V14.01,2013-02-04 07:26:00,
2013-02-04 01:31:00,38.0,37.2,30.03,West,276,0.0,0.0,97,0.00,,---,0.00,VWS V14.01,2013-02-04 07:31:00,
2013-02-04 01:36:00,37.9,37.1,30.02,West,276,0.0,0.0,97,0.00,,---,0.00,VWS V14.01,2013-02-04 07:36:00,
2013-02-04 01:41:00,37.7,36.9,30.02,West,276,0.0,0.0,97,0.00,,---,0.00,VWS V14.01,2013-02-04 07:41:00,
2013-02-04 01:46:00,37.6,36.8,30.02,West,276,0.0,0.0,97,0.00,,---,0.00,VWS V14.01,2013-02-04 07:46:00,
2013-02-04 01:51:00,37.6,36.8,30.02,West,276,0.0,0.0,97,0.00,,---,0.00,VWS V14.01,2013-02-04 07:51:00,
2013-02-04 01:56:00,37.6,36.8,30.02,West,276,0.0,0.0,97,0.00,,---,0.00,VWS V14.01,2013-02-04 07:56:00,
2013-02-04 02:01:00,37.5,36.7,30.02,West,276,0.0,0.0,97,0.00,,---,0.00,VWS V14.01,2013-02-04 08:01:00,
2013-02-04 02:06:00,37.4,36.6,30.02,West,276,0.0,0.0,97,0.00,,---,0.00,VWS V14.01,2013-02-04 08:06:00,
2013-02-04 02:11:00,37.4,36.6,30.02,West,276,0.0,0.0,97,0.00,,---,0.00,VWS V14.01,2013-02-04 08:11:00,
2013-02-04 02:16:00,37.3,36.5,30.02,West,276,0.0,0.0,97,0.00,,---,0.00,VWS V14.01,2013-02-04 08:16:00,
2013-02-04 02:21:00,37.2,36.4,30.02,West,276,0.0,0.0,97,0.00,,---,0.00,VWS V14.01,2013-02-04 08:21:00,
2013-02-04 02:26:00,37.2,36.4,30.02,West,276,0.0,0.0,97,0.00,,---,0.00,VWS V14.01,2013-02-04 08:26:00,
2013-02-04 02:31:00,37.3,36.5,30.02,West,276,0.0,0.0,97,0.00,,---,0.00,VWS V14.01,2013-02-04 08:31:00,
2013-02-04 02:36:00,37.4,36.6,30.01,West,276,0.0,0.0,97,0.00,,---,0.00,VWS V14.01,2013-02-04 08:36:00,
2013-02-04 02:41:00,37.5,36.7,30.01,West,276,0.0,0.0,97,0.00,,---,0.00,VWS V14.01,2013-02-04 08:41:00,
2013-02-04 02:46:00,37.6,36.8,30.01,West,276,0.0,0.0,97,0.00,,---,0.00,VWS V14.01,2013-02-04 08:46:00,
2013-02-04 02:51:00,37.7,36.9,30.01,West,276,0.0,0.0,97,0.00,,---,0.00,VWS V14.01,2013-02-04 08:51:00,
2013-02-04 02:56:00,38.0,37.5,30.01,West,276,0.0,0.0,98,0.00,,---,0.00,VWS V14.01,2013-02-04 08:56:00,
2013-02-04 03:01:00,38.2,37.7,30.01,West,276,0.0,0.0,98,0.00,,---,0.00,VWS V14.01,2013-02-04 09:01:00,
2013-02-04 03:06:00,38.2,37.7,30.01,West,276,0.0,0.0,98,0.00,,---,0.00,VWS V14.01,2013-02-04 09:06:00,
2013-02-04 03:11:00,38.4,37.9,30.01,West,276,0.0,0.0,98,0.00,,---,0.00,VWS V14.01,2013-02-04 09:11:00,
2013-02-04 03:16:00,38.4,37.9,30.02,West,276,0.0,0.0,98,0.00,,---,0.00,VWS V14.01,2013-02-04 09:16:00,
2013-02-04 03:21:00,38.4,37.9,30.01,West,276,0.0,0.0,98,0.00,,---,0.00,VWS V14.01,2013-02-04 09:21:00,
2013-02-04 03:26:00,38.3,37.8,30.02,West,276,0.0,0.0,98,0.00,,---,0.00,VWS V14.01,2013-02-04 09:26:00,
2013-02-04 03:31:00,38.4,37.9,30.02,West,276,0.0,0.0,98,0.00,,---,0.00,VWS V14.01,2013-02-04 09:31:00,
2013-02-04 03:36:00,38.4,37.9,30.02,West,275,0.0,0.0,98,0.00,,---,0.00,VWS V14.01,2013-02-04 09:36:00,
2013-02-04 03:41:00,38.5,38.0,30.02,West,276,0.0,0.0,98,0.00,,---,0.00,VWS V14.01,2013-02-04 09:41:00,
2013-02-04 03:46:00,38.6,38.1,30.02,West,276,0.0,0.0,98,0.00,,---,0.00,VWS V14.01,2013-02-04 09:46:00,
2013-02-04 03:51:00,38.7,38.2,30.02,West,276,0.0,0.0,98,0.00,,---,0.00,VWS V14.01,2013-02-04 09:51:00,
2013-02-04 03:56:00,38.8,38.3,30.02,West,276,0.0,0.0,98,0.00,,---,0.00,VWS V14.01,2013-02-04 09:56:00,
2013-02-04 04:01:00,38.8,38.3,30.01,West,276,0.0,0.0,98,0.00,,---,0.00,VWS V14.01,2013-02-04 10:01:00,
2013-02-04 04:06:00,38.9,38.4,30.01,West,276,0.0,0.0,98,0.00,,---,0.00,VWS V14.01,2013-02-04 10:06:00,
2013-02-04 04:11:00,39.0,38.5,30.01,West,276,0.0,0.0,98,0.00,,---,0.00,VWS V14.01,2013-02-04 10:11:00,
2013-02-04 04:16:00,39.0,38.5,30.01,West,276,0.0,0.0,98,0.00,,---,0.00,VWS V14.01,2013-02-04 10:16:00,
2013-02-04 04:21:00,38.9,38.4,30.01,West,276,0.0,0.0,98,0.00,,---,0.00,VWS V14.01,2013-02-04 10:21:00,
2013-02-04 04:26:00,38.8,38.3,30.01,West,276,0.0,0.0,98,0.00,,---,0.00,VWS V14.01,2013-02-04 10:26:00,
2013-02-04 04:31:00,38.7,38.2,30.01,West,276,0.0,0.0,98,0.00,,---,0.00,VWS V14.01,2013-02-04 10:31:00,
2013-02-04 04:36:00,38.7,38.2,30.00,West,276,0.0,0.0,98,0.00,,---,0.00,VWS V14.01,2013-02-04 10:36:00,
2013-02-04 04:41:00,38.7,38.2,30.00,West,276,0.0,0.0,98,0.00,,---,0.00,VWS V14.01,2013-02-04 10:41:00,
2013-02-04 04:46:00,38.6,38.1,30.00,West,276,0.0,0.0,98,0.00,,---,0.00,VWS V14.01,2013-02-04 10:46:00,
2013-02-04 04:51:00,38.5,38.0,30.00,West,276,0.0,0.0,98,0.00,,---,0.00,VWS V14.01,2013-02-04 10:51:00,
2013-02-04 04:56:00,38.5,38.0,30.00,West,276,0.0,0.0,98,0.00,,---,0.00,VWS V14.01,2013-02-04 10:56:00,
2013-02-04 05:01:00,38.5,38.0,30.00,West,276,0.0,0.0,98,0.00,,---,0.00,VWS V14.01,2013-02-04 11:01:00,
2013-02-04 05:06:00,38.5,38.0,30.00,West,276,0.0,0.0,98,0.00,,---,0.00,VWS V14.01,2013-02-04 11:06:00,
2013-02-04 05:11:00,38.5,38.0,30.00,West,276,0.0,0.0,98,0.00,,---,0.00,VWS V14.01,2013-02-04 11:11:00,
2013-02-04 05:16:00,38.4,37.9,30.00,West,276,0.0,0.0,98,0.00,,---,0.00,VWS V14.01,2013-02-04 11:16:00,
2013-02-04 05:21:00,38.3,37.8,30.00,West,276,0.0,0.0,98,0.00,,---,0.00,VWS V14.01,2013-02-04 11:21:00,
2013-02-04 05:26:00,38.2,37.7,30.00,West,276,0.0,0.0,98,0.00,,---,0.00,VWS V14.01,2013-02-04 11:26:00,
2013-02-04 05:31:00,38.1,37.6,30.00,West,276,0.0,0.0,98,0.00,,---,0.00,VWS V14.01,2013-02-04 11:31:00,
2013-02-04 05:36:00,37.9,37.4,30.00,West,276,0.0,0.0,98,0.00,,---,0.00,VWS V14.01,2013-02-04 11:36:00,
2013-02-04 05:41:00,37.9,37.4,30.00,West,276,0.0,0.0,98,0.00,,---,0.00,VWS V14.01,2013-02-04 11:41:00,
2013-02-04 05:46:00,38.0,37.5,30.01,West,276,0.0,0.0,98,0.00,,---,0.00,VWS V14.01,2013-02-04 11:46:00,
2013-02-04 05:51:00,38.1,37.6,30.01,West,276,0.0,0.0,98,0.00,,---,0.00,VWS V14.01,2013-02-04 11:51:00,
2013-02-04 05:56:00,38.2,37.7,30.02,West,276,0.0,0.0,98,0.00,,---,0.00,VWS V14.01,2013-02-04 11:56:00,
2013-02-04 06:01:00,38.3,37.8,30.02,West,276,0.0,0.0,98,0.00,,---,0.00,VWS V14.01,2013-02-04 12:01:00,
2013-02-04 06:06:00,38.3,37.8,30.02,West,276,0.0,0.0,98,0.00,,---,0.00,VWS V14.01,2013-02-04 12:06:00,
2013-02-04 06:11:00,38.3,37.8,30.02,West,276,0.0,0.0,98,0.00,,---,0.00,VWS V14.01,2013-02-04 12:11:00,
2013-02-04 06:16:00,38.3,37.8,30.01,West,276,0.0,0.0,98,0.00,,---,0.00,VWS V14.01,2013-02-04 12:16:00,
2013-02-04 06:21:00,38.5,38.0,30.01,West,276,0.0,0.0,98,0.00,,---,0.00,VWS V14.01,2013-02-04 12:21:00,
2013-02-04 06:26:00,38.6,38.1,30.01,West,276,0.0,0.0,98,0.00,,---,0.00,VWS V14.01,2013-02-04 12:26:00,
2013-02-04 06:31:00,38.7,38.2,30.01,West,276,0.0,0.0,98,0.00,,---,0.00,VWS V14.01,2013-02-04 12:31:00,
2013-02-04 06:36:00,38.8,38.3,30.01,West,276,0.0,0.0,98,0.00,,---,0.00,VWS V14.01,2013-02-04 12:36:00,
2013-02-04 06:41:00,38.9,38.4,30.02,West,276,0.0,0.0,98,0.00,,---,0.00,VWS V14.01,2013-02-04 12:41:00,
2013-02-04 06:46:00,39.1,38.6,30.01,West,276,0.0,0.0,98,0.00,,---,0.00,VWS V14.01,2013-02-04 12:46:00,
2013-02-04 06:51:00,39.3,38.8,30.01,West,276,0.0,0.0,98,0.00,,---,0.00,VWS V14.01,2013-02-04 12:51:00,
2013-02-04 06:56:00,39.4,38.9,30.00,West,276,0.0,0.0,98,0.00,,---,0.00,VWS V14.01,2013-02-04 12:56:00,
2013-02-04 07:01:00,39.6,39.1,30.00,West,276,0.0,0.0,98,0.00,,---,0.00,VWS V14.01,2013-02-04 13:01:00,
2013-02-04 07:06:00,39.7,39.2,30.00,West,276,0.0,0.0,98,0.00,,---,0.00,VWS V14.01,2013-02-04 13:06:00,
2013-02-04 07:11:00,39.9,39.4,30.00,West,276,0.0,0.0,98,0.00,,---,0.00,VWS V14.01,2013-02-04 13:11:00,
2013-02-04 07:16:00,40.1,39.6,29.99,West,276,0.0,0.0,98,0.00,,---,0.00,VWS V14.01,2013-02-04 13:16:00,
2013-02-04 07:21:00,40.2,39.7,30.00,West,276,0.0,0.0,98,0.00,,---,0.00,VWS V14.01,2013-02-04 13:21:00,
2013-02-04 07:26:00,40.4,39.9,30.00,West,276,0.0,0.0,98,0.00,,---,0.00,VWS V14.01,2013-02-04 13:26:00,
2013-02-04 07:30:00,40.6,40.1,30.02,West,276,0.0,0.0,98,0.00,,---,0.00,VWS V14.01,2013-02-04 13:30:00,
2013-02-04 07:35:00,40.8,40.3,30.02,West,276,0.0,0.0,98,0.00,,---,0.00,VWS V14.01,2013-02-04 13:35:00,
2013-02-04 07:40:00,40.9,40.4,30.02,West,276,0.0,0.0,98,0.00,,---,0.00,VWS V14.01,2013-02-04 13:40:00,
2013-02-04 07:45:00,41.0,40.5,30.03,West,276,0.0,0.0,98,0.00,,---,0.00,VWS V14.01,2013-02-04 13:45:00,
2013-02-04 07:50:00,41.2,40.7,30.02,West,276,0.0,0.0,98,0.00,,---,0.00,VWS V14.01,2013-02-04 13:50:00,
2013-02-04 07:55:00,41.5,41.0,30.03,West,276,0.0,0.0,98,0.00,,---,0.00,VWS V14.01,2013-02-04 13:55:00,
2013-02-04 08:00:00,41.9,41.4,30.03,West,276,0.0,0.0,98,0.00,,---,0.00,VWS V14.01,2013-02-04 14:00:00,
2013-02-04 08:05:00,42.2,41.7,30.04,West,276,0.0,0.0,98,0.00,,---,0.00,VWS V14.01,2013-02-04 14:05:00,
2013-02-04 08:10:00,42.5,42.0,30.03,West,276,0.0,0.0,98,0.00,,---,0.00,VWS V14.01,2013-02-04 14:10:00,
2013-02-04 08:15:00,42.7,42.2,30.04,West,276,0.0,0.0,98,0.00,,---,0.00,VWS V14.01,2013-02-04 14:15:00,
2013-02-04 08:20:00,43.1,42.8,30.04,West,276,0.0,0.0,99,0.00,,---,0.00,VWS V14.01,2013-02-04 14:20:00,
2013-02-04 08:25:00,43.5,43.2,30.04,West,276,0.0,0.0,99,0.00,,---,0.00,VWS V14.01,2013-02-04 14:25:00,
2013-02-04 08:30:00,43.9,43.6,30.03,West,276,0.0,0.0,99,0.00,,---,0.00,VWS V14.01,2013-02-04 14:30:00,
2013-02-04 08:35:00,44.5,44.2,30.02,West,276,0.0,0.0,99,0.00,,---,0.00,VWS V14.01,2013-02-04 14:35:00,
2013-02-04 08:40:00,45.0,44.7,30.02,West,276,0.0,0.0,99,0.00,,---,0.00,VWS V14.01,2013-02-04 14:40:00,
2013-02-04 08:45:00,45.5,45.2,30.03,West,276,0.0,0.0,99,0.00,,---,0.00,VWS V14.01,2013-02-04 14:45:00,
2013-02-04 08:50:00,45.8,45.5,30.04,West,276,0.0,0.0,99,0.00,,---,0.00,VWS V14.01,2013-02-04 14:50:00,
2013-02-04 08:55:00,46.1,45.6,30.04,West,276,0.0,0.0,98,0.00,,---,0.00,VWS V14.01,2013-02-04 14:55:00,
2013-02-04 09:00:00,46.7,45.9,30.04,West,276,0.0,0.0,97,0.00,,---,0.00,VWS V14.01,2013-02-04 15:00:00,
2013-02-04 09:05:00,47.4,46.0,30.04,West,276,0.0,0.0,95,0.00,,---,0.00,VWS V14.01,2013-02-04 15:05:00,
2013-02-04 09:10:00,48.4,46.5,30.04,West,276,0.0,0.0,93,0.00,,---,0.00,VWS V14.01,2013-02-04 15:10:00,
2013-02-04 09:15:00,49.2,46.4,30.04,SW,233,0.0,0.0,90,0.00,,---,0.00,VWS V14.01,2013-02-04 15:15:00,
2013-02-04 09:20:00,49.8,45.8,30.04,SE,135,0.0,1.0,86,0.00,,---,0.00,VWS V14.01,2013-02-04 15:20:00,
2013-02-04 09:25:00,50.2,46.2,30.04,SE,136,0.0,1.0,86,0.00,,---,0.00,VWS V14.01,2013-02-04 15:25:00,
2013-02-04 09:30:00,50.6,45.6,30.05,SE,135,0.0,1.0,83,0.00,,---,0.00,VWS V14.01,2013-02-04 15:30:00,
2013-02-04 09:35:00,50.8,45.5,30.05,SE,135,0.0,0.0,82,0.00,,---,0.00,VWS V14.01,2013-02-04 15:35:00,
2013-02-04 09:40:00,51.2,46.2,30.04,SE,136,0.0,0.0,83,0.00,,---,0.00,VWS V14.01,2013-02-04 15:40:00,
2013-02-04 09:45:00,51.6,46.3,30.04,SE,136,0.0,0.0,82,0.00,,---,0.00,VWS V14.01,2013-02-04 15:45:00,
2013-02-04 09:50:00,52.0,46.0,30.04,SE,136,0.0,0.0,80,0.00,,---,0.00,VWS V14.01,2013-02-04 15:50:00,
2013-02-04 09:55:00,52.4,45.8,30.04,SE,134,0.0,1.0,78,0.00,,---,0.00,VWS V14.01,2013-02-04 15:55:00,
2013-02-04 10:00:00,52.8,45.8,30.04,SE,134,0.0,1.0,77,0.00,,---,0.00,VWS V14.01,2013-02-04 16:00:00,
2013-02-04 10:05:00,53.2,45.5,30.04,SE,134,0.0,0.0,75,0.00,,---,0.00,VWS V14.01,2013-02-04 16:05:00,
2013-02-04 10:10:00,53.6,45.9,30.05,SE,134,0.0,0.0,75,0.00,,---,0.00,VWS V14.01,2013-02-04 16:10:00,
2013-02-04 10:15:00,54.1,46.0,30.04,SE,134,0.0,0.0,74,0.00,,---,0.00,VWS V14.01,2013-02-04 16:15:00,
2013-02-04 10:20:00,54.3,45.1,30.04,SE,124,0.0,1.0,71,0.00,,---,0.00,VWS V14.01,2013-02-04 16:20:00,
2013-02-04 10:25:00,54.7,45.1,30.03,SE,124,0.0,1.0,70,0.00,,---,0.00,VWS V14.01,2013-02-04 16:25:00,
2013-02-04 10:30:00,55.1,45.5,30.03,SE,130,0.0,1.0,70,0.00,,---,0.00,VWS V14.01,2013-02-04 16:30:00,
2013-02-04 10:35:00,55.7,46.8,30.03,SE,131,0.0,0.0,72,0.00,,---,0.00,VWS V14.01,2013-02-04 16:35:00,
2013-02-04 10:40:00,56.3,46.7,30.03,East,86,0.0,1.0,70,0.00,,---,0.00,VWS V14.01,2013-02-04 16:40:00,
2013-02-04 10:45:00,57.0,46.2,30.04,East,94,0.0,1.0,67,0.00,,---,0.00,VWS V14.01,2013-02-04 16:45:00,
2013-02-04 10:50:00,57.5,47.0,30.03,East,94,0.0,1.0,68,0.00,,---,0.00,VWS V14.01,2013-02-04 16:50:00,
2013-02-04 10:55:00,57.9,47.0,30.03,SW,221,0.0,1.0,67,0.00,,---,0.00,VWS V14.01,2013-02-04 16:55:00,
2013-02-04 11:00:00,58.7,47.8,30.03,SSW,207,0.0,1.0,67,0.00,,---,0.00,VWS V14.01,2013-02-04 17:00:00,
2013-02-04 11:05:00,59.4,48.5,30.03,SW,219,0.0,0.0,67,0.00,,---,0.00,VWS V14.01,2013-02-04 17:05:00,
2013-02-04 11:10:00,60.2,47.6,30.02,SE,129,0.0,1.0,63,0.00,,---,0.00,VWS V14.01,2013-02-04 17:10:00,
2013-02-04 11:15:00,60.4,47.8,30.02,SE,127,0.0,1.0,63,0.00,,---,0.00,VWS V14.01,2013-02-04 17:15:00,
2013-02-04 11:20:00,60.5,47.9,30.02,SE,126,0.0,1.0,63,0.00,,---,0.00,VWS V14.01,2013-02-04 17:20:00,
2013-02-04 11:25:00,60.3,48.1,30.02,SSE,160,0.0,1.0,64,0.00,,---,0.00,VWS V14.01,2013-02-04 17:25:00,
2013-02-04 11:30:00,60.7,48.0,30.02,SE,134,0.0,1.0,63,0.00,,---,0.00,VWS V14.01,2013-02-04 17:30:00,
2013-02-04 11:35:00,60.9,48.2,30.01,SSW,208,2.0,2.0,63,0.00,,---,0.00,VWS V14.01,2013-02-04 17:35:00,
2013-02-04 11:40:00,60.7,48.5,30.00,SW,214,0.0,2.0,64,0.00,,---,0.00,VWS V14.01,2013-02-04 17:40:00,
2013-02-04 11:45:00,60.7,48.5,30.00,SSW,210,0.0,2.0,64,0.00,,---,0.00,VWS V14.01,2013-02-04 17:45:00,
2013-02-04 11:50:00,60.8,49.0,30.00,SSW,210,0.0,2.0,65,0.00,,---,0.00,VWS V14.01,2013-02-04 17:50:00,
2013-02-04 11:55:00,61.1,49.7,30.00,SSW,210,0.0,2.0,66,0.00,,---,0.00,VWS V14.01,2013-02-04 17:55:00,
2013-02-04 12:00:00,61.3,49.9,30.00,SSW,210,0.0,2.0,66,0.00,,---,0.00,VWS V14.01,2013-02-04 18:00:00,
2013-02-04 12:05:00,61.3,49.0,30.00,South,188,0.0,0.0,64,0.00,,---,0.00,VWS V14.01,2013-02-04 18:05:00,
2013-02-04 12:10:00,61.2,48.5,30.00,SW,222,0.0,1.0,63,0.00,,---,0.00,VWS V14.01,2013-02-04 18:10:00,
2013-02-04 12:15:00,61.4,48.7,29.99,SE,124,0.0,1.0,63,0.00,,---,0.00,VWS V14.01,2013-02-04 18:15:00,
2013-02-04 12:20:00,61.7,49.0,29.99,SE,137,0.0,1.0,63,0.00,,---,0.00,VWS V14.01,2013-02-04 18:20:00,
2013-02-04 12:25:00,61.9,48.3,29.99,SE,136,0.0,1.0,61,0.00,,---,0.00,VWS V14.01,2013-02-04 18:25:00,
2013-02-04 12:30:00,62.0,48.8,29.99,SE,136,0.0,1.0,62,0.00,,---,0.00,VWS V14.01,2013-02-04 18:30:00,
2013-02-04 12:35:00,62.3,49.1,29.99,SE,136,0.0,0.0,62,0.00,,---,0.00,VWS V14.01,2013-02-04 18:35:00,
2013-02-04 12:40:00,62.4,48.3,29.98,West,266,0.0,1.0,60,0.00,,---,0.00,VWS V14.01,2013-02-04 18:40:00,
2013-02-04 12:45:00,62.2,49.0,29.98,West,266,0.0,1.0,62,0.00,,---,0.00,VWS V14.01,2013-02-04 18:45:00,
2013-02-04 12:50:00,62.1,49.4,29.98,West,266,0.0,1.0,63,0.00,,---,0.00,VWS V14.01,2013-02-04 18:50:00,
2013-02-04 12:55:00,61.8,49.1,29.98,West,267,0.0,1.0,63,0.00,,---,0.00,VWS V14.01,2013-02-04 18:55:00,
2013-02-04 13:00:00,61.7,49.0,29.97,West,265,0.0,1.0,63,0.00,,---,0.00,VWS V14.01,2013-02-04 19:00:00,
2013-02-04 13:05:00,61.6,48.9,29.97,West,266,0.0,0.0,63,0.00,,---,0.00,VWS V14.01,2013-02-04 19:05:00,
2013-02-04 13:10:00,62.1,48.9,29.97,West,266,0.0,0.0,62,0.00,,---,0.00,VWS V14.01,2013-02-04 19:10:00,
2013-02-04 13:15:00,62.7,49.9,29.97,West,267,0.0,0.0,63,0.00,,---,0.00,VWS V14.01,2013-02-04 19:15:00,
2013-02-04 13:20:00,63.1,49.5,29.97,SW,228,0.0,1.0,61,0.00,,---,0.00,VWS V14.01,2013-02-04 19:20:00,
2013-02-04 13:25:00,63.1,49.5,29.96,SW,225,0.0,1.0,61,0.00,,---,0.00,VWS V14.01,2013-02-04 19:25:00,
2013-02-04 13:30:00,63.2,49.5,29.96,SW,225,0.0,1.0,61,0.00,,---,0.00,VWS V14.01,2013-02-04 19:30:00,
2013-02-04 13:35:00,63.2,48.7,29.96,SW,214,0.0,1.0,59,0.00,,---,0.00,VWS V14.01,2013-02-04 19:35:00,
2013-02-04 13:40:00,63.3,48.3,29.95,SW,215,0.0,1.0,58,0.00,,---,0.00,VWS V14.01,2013-02-04 19:40:00,
2013-02-04 13:45:00,63.6,48.6,29.95,SW,217,0.0,2.0,58,0.00,,---,0.00,VWS V14.01,2013-02-04 19:45:00,
2013-02-04 13:50:00,63.8,49.2,29.95,SW,217,0.0,2.0,59,0.00,,---,0.00,VWS V14.01,2013-02-04 19:50:00,
2013-02-04 13:55:00,63.8,48.3,29.95,WSW,255,0.0,2.0,57,0.00,,---,0.00,VWS V14.01,2013-02-04 19:55:00,
2013-02-04 14:00:00,63.6,48.6,29.95,SW,225,0.0,2.0,58,0.00,,---,0.00,VWS V14.01,2013-02-04 20:00:00,
2013-02-04 14:05:00,63.7,49.6,29.95,SW,225,0.0,0.0,60,0.00,,---,0.00,VWS V14.01,2013-02-04 20:05:00,
2013-02-04 14:10:00,63.9,49.3,29.95,SW,225,0.0,0.0,59,0.00,,---,0.00,VWS V14.01,2013-02-04 20:10:00,
2013-02-04 14:15:00,64.0,49.4,29.95,NE,53,0.0,1.0,59,0.00,,---,0.00,VWS V14.01,2013-02-04 20:15:00,
2013-02-04 14:20:00,64.2,49.1,29.95,East,98,0.0,1.0,58,0.00,,---,0.00,VWS V14.01,2013-02-04 20:20:00,
2013-02-04 14:25:00,64.2,49.1,29.95,East,98,0.0,1.0,58,0.00,,---,0.00,VWS V14.01,2013-02-04 20:25:00,
2013-02-04 14:30:00,64.6,50.0,29.95,SW,215,0.0,1.0,59,0.00,,---,0.00,VWS V14.01,2013-02-04 20:30:00,
2013-02-04 14:35:00,64.5,49.4,29.94,SE,141,0.0,0.0,58,0.00,,---,0.00,VWS V14.01,2013-02-04 20:35:00,
2013-02-04 14:40:00,64.2,49.1,29.94,SE,141,0.0,0.0,58,0.00,,---,0.00,VWS V14.01,2013-02-04 20:40:00,
2013-02-04 14:44:00,64.0,50.7,29.94,SE,141,0.0,0.0,62,0.00,,---,0.00,VWS V14.01,2013-02-04 20:44:00,
2013-02-04 14:49:00,64.1,50.0,29.93,SE,141,0.0,0.0,60,0.00,,---,0.00,VWS V14.01,2013-02-04 20:49:00,
2013-02-04 14:54:00,64.3,49.2,29.93,SE,141,0.0,1.0,58,0.00,,---,0.00,VWS V14.01,2013-02-04 20:54:00,
2013-02-04 14:59:00,64.5,50.3,29.93,SE,141,0.0,1.0,60,0.00,,---,0.00,VWS V14.01,2013-02-04 20:59:00,
2013-02-04 15:04:00,64.7,50.1,29.93,SE,141,0.0,0.0,59,0.00,,---,0.00,VWS V14.01,2013-02-04 21:04:00,
2013-02-04 15:09:00,64.7,50.1,29.94,SE,142,0.0,0.0,59,0.00,,---,0.00,VWS V14.01,2013-02-04 21:09:00,
2013-02-04 15:14:00,64.5,49.9,29.93,SE,142,0.0,0.0,59,0.00,,---,0.00,VWS V14.01,2013-02-04 21:14:00,
2013-02-04 15:19:00,64.2,50.0,29.93,SE,141,0.0,0.0,60,0.00,,---,0.00,VWS V14.01,2013-02-04 21:19:00,
2013-02-04 15:24:00,63.9,50.6,29.93,SE,139,0.0,1.0,62,0.00,,---,0.00,VWS V14.01,2013-02-04 21:24:00,
2013-02-04 15:29:00,63.9,48.8,29.93,SE,139,0.0,1.0,58,0.00,,---,0.00,VWS V14.01,2013-02-04 21:29:00,
2013-02-04 15:34:00,63.7,49.1,29.93,SE,140,0.0,0.0,59,0.00,,---,0.00,VWS V14.01,2013-02-04 21:34:00,
2013-02-04 15:39:00,63.5,49.4,29.93,SE,140,0.0,0.0,60,0.00,,---,0.00,VWS V14.01,2013-02-04 21:39:00,
2013-02-04 15:44:00,63.4,50.2,29.93,SE,139,0.0,0.0,62,0.00,,---,0.00,VWS V14.01,2013-02-04 21:44:00,
2013-02-04 15:49:00,63.4,49.7,29.93,SE,139,0.0,0.0,61,0.00,,---,0.00,VWS V14.01,2013-02-04 21:49:00,
2013-02-04 15:54:00,63.4,50.2,29.93,SE,139,0.0,0.0,62,0.00,,---,0.00,VWS V14.01,2013-02-04 21:54:00,
2013-02-04 15:59:00,63.3,50.5,29.93,SE,139,0.0,0.0,63,0.00,,---,0.00,VWS V14.01,2013-02-04 21:59:00,
2013-02-04 16:04:00,63.0,49.8,29.93,SE,139,0.0,0.0,62,0.00,,---,0.00,VWS V14.01,2013-02-04 22:04:00,
2013-02-04 16:09:00,62.5,49.8,29.92,SE,139,0.0,0.0,63,0.00,,---,0.00,VWS V14.01,2013-02-04 22:09:00,
2013-02-04 16:14:00,62.2,49.9,29.92,SE,139,0.0,0.0,64,0.00,,---,0.00,VWS V14.01,2013-02-04 22:14:00,
2013-02-04 16:19:00,62.2,51.5,29.92,SE,140,0.0,0.0,68,0.00,,---,0.00,VWS V14.01,2013-02-04 22:19:00,
2013-02-04 16:24:00,62.0,51.3,29.92,SE,139,0.0,0.0,68,0.00,,---,0.00,VWS V14.01,2013-02-04 22:24:00,
2013-02-04 16:29:00,61.7,51.8,29.92,SE,139,0.0,0.0,70,0.00,,---,0.00,VWS V14.01,2013-02-04 22:29:00,
2013-02-04 16:34:00,61.5,52.0,29.92,SE,139,0.0,0.0,71,0.00,,---,0.00,VWS V14.01,2013-02-04 22:34:00,
2013-02-04 16:39:00,61.1,52.0,29.93,SE,139,0.0,0.0,72,0.00,,---,0.00,VWS V14.01,2013-02-04 22:39:00,
2013-02-04 16:44:00,60.7,52.0,29.92,SE,140,0.0,0.0,73,0.00,,---,0.00,VWS V14.01,2013-02-04 22:44:00,
2013-02-04 16:49:00,60.3,52.3,29.92,SE,139,0.0,0.0,75,0.00,,---,0.00,VWS V14.01,2013-02-04 22:49:00,
2013-02-04 16:54:00,59.8,52.2,29.91,SE,139,0.0,0.0,76,0.00,,---,0.00,VWS V14.01,2013-02-04 22:54:00,
2013-02-04 16:59:00,59.2,51.7,29.91,SE,140,0.0,0.0,76,0.00,,---,0.00,VWS V14.01,2013-02-04 22:59:00,
2013-02-04 17:04:00,58.8,52.3,29.91,SE,139,0.0,0.0,79,0.00,,---,0.00,VWS V14.01,2013-02-04 23:04:00,
2013-02-04 17:09:00,58.4,52.6,29.91,SE,139,0.0,0.0,81,0.00,,---,0.00,VWS V14.01,2013-02-04 23:09:00,
2013-02-04 17:14:00,58.2,53.4,29.92,SE,139,0.0,0.0,84,0.00,,---,0.00,VWS V14.01,2013-02-04 23:14:00,
2013-02-04 17:19:00,57.8,53.3,29.91,SE,140,0.0,0.0,85,0.00,,---,0.00,VWS V14.01,2013-02-04 23:19:00,
2013-02-04 17:24:00,57.2,53.4,29.91,SE,139,0.0,0.0,87,0.00,,---,0.00,VWS V14.01,2013-02-04 23:24:00,
2013-02-04 17:29:00,56.6,53.1,29.91,SE,139,0.0,0.0,88,0.00,,---,0.00,VWS V14.01,2013-02-04 23:29:00,
2013-02-04 17:34:00,56.2,53.3,29.90,SE,139,0.0,0.0,90,0.00,,---,0.00,VWS V14.01,2013-02-04 23:34:00,
2013-02-04 17:39:00,55.8,53.2,29.91,SE,139,0.0,0.0,91,0.00,,---,0.00,VWS V14.01,2013-02-04 23:39:00,
2013-02-04 17:44:00,55.7,53.1,29.91,SE,139,0.0,0.0,91,0.00,,---,0.00,VWS V14.01,2013-02-04 23:44:00,
2013-02-04 17:49:00,55.4,53.1,29.90,SE,139,0.0,0.0,92,0.00,,---,0.00,VWS V14.01,2013-02-04 23:49:00,
2013-02-04 17:54:00,55.3,53.3,29.91,SE,139,0.0,0.0,93,0.00,,---,0.00,VWS V14.01,2013-02-04 23:54:00,
2013-02-04 17:59:00,55.2,53.5,29.91,SE,139,0.0,0.0,94,0.01,,---,0.01,VWS V14.01,2013-02-04 23:59:00,
2013-02-04 18:04:00,55.1,53.4,29.91,SE,139,0.0,0.0,94,0.01,,---,0.01,VWS V14.01,2013-02-05 00:04:00,
2013-02-04 18:09:00,54.9,53.2,29.92,SE,139,0.0,0.0,94,0.01,,---,0.01,VWS V14.01,2013-02-05 00:09:00,
2013-02-04 18:14:00,54.8,53.1,29.92,SE,139,0.0,0.0,94,0.01,,---,0.01,VWS V14.01,2013-02-05 00:14:00,
2013-02-04 18:19:00,54.8,53.1,29.92,SE,139,0.0,0.0,94,0.01,,---,0.01,VWS V14.01,2013-02-05 00:19:00,
2013-02-04 18:24:00,54.6,52.9,29.92,SE,139,0.0,0.0,94,0.01,,---,0.01,VWS V14.01,2013-02-05 00:24:00,
2013-02-04 18:29:00,54.2,52.5,29.92,SE,139,0.0,0.0,94,0.02,,---,0.02,VWS V14.01,2013-02-05 00:29:00,
2013-02-04 18:34:00,54.0,52.6,29.92,SE,141,0.0,0.0,95,0.02,,---,0.02,VWS V14.01,2013-02-05 00:34:00,
2013-02-04 18:39:00,54.0,52.6,29.92,SE,139,0.0,0.0,95,0.02,,---,0.02,VWS V14.01,2013-02-05 00:39:00,
2013-02-04 18:44:00,53.9,52.5,29.92,SE,139,0.0,0.0,95,0.02,,---,0.02,VWS V14.01,2013-02-05 00:44:00,
2013-02-04 18:49:00,53.9,52.5,29.92,SE,139,0.0,0.0,95,0.03,,---,0.03,VWS V14.01,2013-02-05 00:49:00,
2013-02-04 18:54:00,53.9,52.8,29.92,SE,140,0.0,0.0,96,0.03,,---,0.03,VWS V14.01,2013-02-05 00:54:00,
2013-02-04 18:59:00,53.8,52.7,29.92,SE,139,0.0,0.0,96,0.03,,---,0.03,VWS V14.01,2013-02-05 00:59:00,
2013-02-04 19:04:00,53.8,52.7,29.92,SE,139,0.0,0.0,96,0.02,,---,0.03,VWS V14.01,2013-02-05 01:04:00,
2013-02-04 19:09:00,53.7,52.6,29.92,SE,139,0.0,0.0,96,0.03,,---,0.04,VWS V14.01,2013-02-05 01:09:00,
2013-02-04 19:14:00,53.7,52.6,29.92,SE,139,0.0,0.0,96,0.03,,---,0.04,VWS V14.01,2013-02-05 01:14:00,
2013-02-04 19:19:00,53.6,52.5,29.92,SE,139,0.0,0.0,96,0.03,,---,0.04,VWS V14.01,2013-02-05 01:19:00,
2013-02-04 19:24:00,53.6,52.5,29.92,SE,139,0.0,0.0,96,0.03,,---,0.04,VWS V14.01,2013-02-05 01:24:00,
2013-02-04 19:29:00,53.6,52.5,29.92,SE,139,0.0,0.0,96,0.03,,---,0.04,VWS V14.01,2013-02-05 01:29:00,
2013-02-04 19:34:00,53.7,52.9,29.92,SE,139,0.0,0.0,97,0.02,,---,0.04,VWS V14.01,2013-02-05 01:34:00,
2013-02-04 19:39:00,53.7,52.9,29.92,SE,139,0.0,0.0,97,0.02,,---,0.04,VWS V14.01,2013-02-05 01:39:00,
2013-02-04 19:44:00,53.7,52.9,29.92,SE,139,0.0,0.0,97,0.02,,---,0.04,VWS V14.01,2013-02-05 01:44:00,
2013-02-04 19:49:00,53.7,52.9,29.92,SE,140,0.0,0.0,97,0.02,,---,0.04,VWS V14.01,2013-02-05 01:49:00,
2013-02-04 19:54:00,53.6,52.8,29.92,SE,140,0.0,0.0,97,0.02,,---,0.04,VWS V14.01,2013-02-05 01:54:00,
2013-02-04 19:59:00,53.6,52.8,29.92,SE,139,0.0,0.0,97,0.02,,---,0.04,VWS V14.01,2013-02-05 01:59:00,
2013-02-04 20:04:00,53.6,52.8,29.92,SE,139,0.0,0.0,97,0.01,,---,0.04,VWS V14.01,2013-02-05 02:04:00,
2013-02-04 20:09:00,53.7,52.9,29.92,SE,141,0.0,0.0,97,0.01,,---,0.04,VWS V14.01,2013-02-05 02:09:00,
2013-02-04 20:14:00,53.7,52.9,29.92,SE,139,0.0,0.0,97,0.01,,---,0.04,VWS V14.01,2013-02-05 02:14:00,
2013-02-04 20:19:00,53.7,52.9,29.92,SE,139,0.0,0.0,97,0.01,,---,0.04,VWS V14.01,2013-02-05 02:19:00,
2013-02-04 20:24:00,53.7,52.9,29.92,SE,139,0.0,0.0,97,0.01,,---,0.04,VWS V14.01,2013-02-05 02:24:00,
2013-02-04 20:29:00,53.8,53.0,29.92,SE,139,0.0,0.0,97,0.01,,---,0.04,VWS V14.01,2013-02-05 02:29:00,
2013-02-04 20:34:00,53.8,53.0,29.92,SE,139,0.0,0.0,97,0.00,,---,0.04,VWS V14.01,2013-02-05 02:34:00,
2013-02-04 20:39:00,53.9,53.1,29.92,SE,139,0.0,0.0,97,0.00,,---,0.04,VWS V14.01,2013-02-05 02:39:00,
2013-02-04 20:44:00,53.9,53.1,29.92,SE,139,0.0,0.0,97,0.00,,---,0.04,VWS V14.01,2013-02-05 02:44:00,
2013-02-04 20:49:00,54.0,53.2,29.93,SE,139,0.0,0.0,97,0.00,,---,0.04,VWS V14.01,2013-02-05 02:49:00,
2013-02-04 20:54:00,54.0,53.2,29.92,SE,139,0.0,0.0,97,0.00,,---,0.04,VWS V14.01,2013-02-05 02:54:00,
2013-02-04 20:59:00,54.0,53.2,29.92,SE,139,0.0,0.0,97,0.00,,---,0.04,VWS V14.01,2013-02-05 02:59:00,
2013-02-04 21:04:00,54.0,53.2,29.92,SE,139,0.0,0.0,97,0.00,,---,0.04,VWS V14.01,2013-02-05 03:04:00,
2013-02-04 21:09:00,54.0,53.2,29.92,SE,139,0.0,0.0,97,0.00,,---,0.04,VWS V14.01,2013-02-05 03:09:00,
2013-02-04 21:14:00,54.0,53.2,29.91,SE,139,0.0,0.0,97,0.00,,---,0.04,VWS V14.01,2013-02-05 03:14:00,
2013-02-04 21:19:00,53.9,53.1,29.91,SE,139,0.0,0.0,97,0.00,,---,0.04,VWS V14.01,2013-02-05 03:19:00,
2013-02-04 21:24:00,53.9,53.1,29.91,SE,139,0.0,0.0,97,0.01,,---,0.05,VWS V14.01,2013-02-05 03:24:00,
2013-02-04 21:29:00,54.0,53.2,29.92,SE,139,0.0,0.0,97,0.01,,---,0.05,VWS V14.01,2013-02-05 03:29:00,
2013-02-04 21:34:00,53.9,53.1,29.92,SE,139,0.0,0.0,97,0.01,,---,0.05,VWS V14.01,2013-02-05 03:34:00,
2013-02-04 21:39:00,54.0,53.5,29.92,SE,139,0.0,0.0,98,0.01,,---,0.05,VWS V14.01,2013-02-05 03:39:00,
2013-02-04 21:44:00,54.0,53.5,29.92,SE,139,0.0,0.0,98,0.01,,---,0.05,VWS V14.01,2013-02-05 03:44:00,
2013-02-04 21:49:00,54.1,53.5,29.92,SE,139,0.0,0.0,98,0.01,,---,0.05,VWS V14.01,2013-02-05 03:49:00,
2013-02-04 21:54:00,54.1,53.5,29.91,SE,139,0.0,0.0,98,0.01,,---,0.05,VWS V14.01,2013-02-05 03:54:00,
2013-02-04 21:59:00,54.1,53.5,29.90,SE,139,0.0,0.0,98,0.02,,---,0.06,VWS V14.01,2013-02-05 03:59:00,
2013-02-04 22:04:00,54.2,53.7,29.91,SE,140,0.0,0.0,98,0.02,,---,0.06,VWS V14.01,2013-02-05 04:04:00,
2013-02-04 22:09:00,54.2,53.7,29.91,SE,141,0.0,0.0,98,0.02,,---,0.06,VWS V14.01,2013-02-05 04:09:00,
2013-02-04 22:14:00,54.3,53.8,29.91,SE,139,0.0,0.0,98,0.02,,---,0.06,VWS V14.01,2013-02-05 04:14:00,
2013-02-04 22:19:00,54.3,53.8,29.91,SE,139,0.0,0.0,98,0.02,,---,0.06,VWS V14.01,2013-02-05 04:19:00,
2013-02-04 22:24:00,54.3,53.8,29.91,SE,139,0.0,0.0,98,0.02,,---,0.06,VWS V14.01,2013-02-05 04:24:00,
2013-02-04 22:29:00,54.5,54.0,29.91,SE,139,0.0,0.0,98,0.02,,---,0.06,VWS V14.01,2013-02-05 04:29:00,
2013-02-04 22:34:00,54.5,54.0,29.90,SE,139,0.0,0.0,98,0.02,,---,0.07,VWS V14.01,2013-02-05 04:34:00,
2013-02-04 22:39:00,54.6,54.0,29.90,SE,139,0.0,0.0,98,0.02,,---,0.07,VWS V14.01,2013-02-05 04:39:00,
2013-02-04 22:44:00,54.6,54.0,29.91,SE,139,0.0,0.0,98,0.02,,---,0.07,VWS V14.01,2013-02-05 04:44:00,
2013-02-04 22:49:00,54.6,54.0,29.91,SE,139,0.0,0.0,98,0.03,,---,0.08,VWS V14.01,2013-02-05 04:49:00,
2013-02-04 22:54:00,54.6,54.0,29.91,SE,139,0.0,0.0,98,0.05,,---,0.10,VWS V14.01,2013-02-05 04:54:00,
2013-02-04 22:59:00,54.6,54.0,29.91,SE,139,0.0,0.0,98,0.05,,---,0.10,VWS V14.01,2013-02-05 04:59:00,
2013-02-04 23:00:00,54.6,54.0,29.91,SE,141,0.0,0.0,98,0.05,,---,0.10,VWS V14.01,2013-02-05 05:00:00,
2013-02-04 23:05:00,54.6,54.0,29.91,SE,139,0.0,0.0,98,0.04,,---,0.10,VWS V14.01,2013-02-05 05:05:00,
2013-02-04 23:10:00,54.6,54.0,29.91,SE,139,0.0,0.0,98,0.04,,---,0.10,VWS V14.01,2013-02-05 05:10:00,
2013-02-04 23:15:00,54.6,54.0,29.91,SE,141,0.0,0.0,98,0.05,,---,0.11,VWS V14.01,2013-02-05 05:15:00,
2013-02-04 23:20:00,54.7,54.2,29.91,SE,139,0.0,0.0,98,0.06,,---,0.12,VWS V14.01,2013-02-05 05:20:00,
2013-02-04 23:25:00,54.7,54.2,29.90,SE,141,0.0,0.0,98,0.07,,---,0.13,VWS V14.01,2013-02-05 05:25:00,
2013-02-04 23:30:00,54.7,54.2,29.90,SE,139,0.0,0.0,98,0.08,,---,0.14,VWS V14.01,2013-02-05 05:30:00,
2013-02-04 23:35:00,54.7,54.2,29.90,SE,141,0.0,0.0,98,0.08,,---,0.15,VWS V14.01,2013-02-05 05:35:00,
2013-02-04 23:40:00,54.8,54.2,29.90,SE,141,0.0,0.0,98,0.08,,---,0.15,VWS V14.01,2013-02-05 05:40:00,
2013-02-04 23:45:00,54.8,54.2,29.90,SE,139,0.0,0.0,98,0.09,,---,0.16,VWS V14.01,2013-02-05 05:45:00,
2013-02-04 23:50:00,54.9,54.3,29.90,SE,139,0.0,0.0,98,0.09,,---,0.16,VWS V14.01,2013-02-05 05:50:00,
2013-02-04 23:55:00,54.9,54.3,29.90,SE,141,0.0,0.0,98,0.09,,---,0.16,VWS V14.01,2013-02-05 05:55:00,